Time;durP1;ratioP1;P1;durP2;ratioP2;P2;SDS_P1;SDS_P2;PMS_P1;PMS_P2;Temp;Humidity;BMP_temperature;BMP_pressure;BME280_temperature;BME280_humidity;BME280_pressure;Samples;Min_cycle;Max_cycle;Signal;HPM_P1;HPM_P2
2022/06/20 00:00:17;;;;;;;4.30;2.10;;;;;;;13.48;95.89;100501.88;107596;1280;72732;-83
2022/06/20 00:02:48;;;;;;;4.00;2.20;;;;;;;13.46;95.67;100546.10;107265;1281;62303;-84
2022/06/20 00:05:20;;;;;;;2.80;2.00;;;;;;;13.42;96.27;100628.92;108040;1281;61625;-83
2022/06/20 00:07:48;;;;;;;4.20;2.40;;;;;;;13.37;96.94;100644.44;107683;1281;74974;-85
2022/06/20 00:10:17;;;;;;;4.70;2.00;;;;;;;13.34;97.45;100652.81;107766;1281;71586;-85
2022/06/20 00:12:45;;;;;;;5.60;2.30;;;;;;;13.31;98.43;100664.39;107557;1281;74257;-85
2022/06/20 00:15:29;;;;;;;4.60;1.80;;;;;;;13.28;98.51;100677.95;107576;1281;63579;-85
2022/06/20 00:17:56;;;;;;;5.20;2.00;;;;;;;13.23;99.35;100696.52;107372;1282;60376;-85
2022/06/20 00:20:24;;;;;;;4.60;2.70;;;;;;;13.19;99.30;100683.48;107460;1282;75316;-85
2022/06/20 00:22:51;;;;;;;6.40;2.30;;;;;;;13.17;99.49;100680.19;107514;1282;70677;-84
2022/06/20 00:25:19;;;;;;;4.60;2.40;;;;;;;13.15;99.89;100667.43;107720;1281;73005;-84
2022/06/20 00:27:47;;;;;;;9.60;2.50;;;;;;;13.15;99.86;100663.23;107428;1281;63301;-84
2022/06/20 00:30:15;;;;;;;5.40;2.20;;;;;;;13.16;99.79;100648.70;107555;1281;61572;-85
2022/06/20 00:32:42;;;;;;;5.30;2.10;;;;;;;13.16;99.74;100637.36;107430;1282;76996;-85
2022/06/20 00:35:10;;;;;;;3.40;2.40;;;;;;;13.18;99.69;100617.42;107320;1282;71329;-85
2022/06/20 00:37:38;;;;;;;3.70;2.00;;;;;;;13.18;99.72;100603.16;107374;1282;73122;-86
2022/06/20 00:40:34;;;;;;;4.10;1.70;;;;;;;13.18;99.41;100589.60;107502;1280;63135;-86
2022/06/20 00:43:02;;;;;;;4.00;2.20;;;;;;;13.19;99.77;100551.54;107375;1282;60480;-86
2022/06/20 00:45:37;;;;;;;2.30;1.70;;;;;;;13.20;99.70;100521.39;107688;1281;76053;-85
2022/06/20 00:48:10;;;;;;;6.30;1.80;;;;;;;13.21;99.68;100530.70;107577;1281;72720;-85
2022/06/20 00:50:44;;;;;;;3.40;2.10;;;;;;;13.19;99.53;100507.69;107586;1281;73633;-86
2022/06/20 00:53:18;;;;;;;7.30;2.70;;;;;;;13.22;99.62;100514.23;107589;1281;62106;-86
2022/06/20 00:55:51;;;;;;;3.40;2.40;;;;;;;13.23;99.70;100509.43;107464;1281;60631;-86
2022/06/20 00:58:42;;;;;;;6.80;2.80;;;;;;;13.24;99.71;100495.79;107269;1284;76167;-85
2022/06/20 01:01:12;;;;;;;4.90;2.30;;;;;;;13.26;99.76;100499.08;107605;1282;69939;-86
2022/06/20 01:03:45;;;;;;;3.00;2.10;;;;;;;13.25;99.30;100493.55;107554;1281;73377;-86
2022/06/20 01:06:19;;;;;;;4.00;2.00;;;;;;;13.21;99.04;100500.08;107518;1281;62121;-86
2022/06/20 01:08:54;;;;;;;4.70;2.40;;;;;;;13.18;98.76;100519.04;107600;1281;60622;-86
2022/06/20 01:11:25;;;;;;;4.00;2.40;;;;;;;13.14;98.54;100521.43;107475;1281;75966;-86
2022/06/20 01:13:53;;;;;;;5.20;2.50;;;;;;;13.14;99.01;100525.23;107402;1281;71365;-86
2022/06/20 01:16:28;;;;;;;5.70;2.40;;;;;;;13.12;99.08;100531.41;107291;1282;72875;-86
2022/06/20 01:18:55;;;;;;;;;;;;;;;13.12;99.26;100532.40;107448;1281;61692;-86
2022/06/20 01:21:33;;;;;;;3.50;2.30;;;;;;;13.11;99.81;100540.13;107450;1282;60558;-86
2022/06/20 01:24:27;;;;;;;3.70;2.60;;;;;;;13.12;99.89;100531.71;107318;1282;76042;-86
2022/06/20 01:27:15;;;;;;;6.10;2.90;;;;;;;13.13;99.96;100533.10;107468;1281;71384;-86
2022/06/20 01:29:42;;;;;;;5.80;2.40;;;;;;;13.14;99.96;100536.67;107215;1281;72960;-86
2022/06/20 01:32:10;;;;;;;5.30;2.80;;;;;;;13.14;100.00;100523.52;107189;1282;63285;-86
2022/06/20 01:34:37;;;;;;;3.90;2.30;;;;;;;13.12;99.91;100506.38;107664;1281;60786;-86
2022/06/20 01:37:29;;;;;;;4.30;2.50;;;;;;;13.11;99.71;100512.48;107225;1281;74981;-85
2022/06/20 01:39:59;;;;;;;6.30;2.30;;;;;;;13.07;99.75;100510.04;107291;1282;71149;-86
2022/06/20 01:42:28;;;;;;;6.60;3.20;;;;;;;13.05;99.87;100507.98;107504;1281;73125;-85
2022/06/20 01:45:57;;;;;;;10.30;2.70;;;;;;;13.03;99.97;100511.90;107512;1281;62271;-85
2022/06/20 01:47:53;;;;;;;6.20;2.10;;;;;;;13.03;99.97;100529.36;107482;1282;60987;-86
2022/06/20 01:50:21;;;;;;;5.10;2.80;;;;;;;13.03;100.00;100528.89;107347;1281;75014;-86
2022/06/20 01:52:49;;;;;;;6.40;3.80;;;;;;;13.03;100.00;100514.77;107310;1281;71211;-86
2022/06/20 01:55:20;;;;;;;5.80;3.10;;;;;;;13.04;100.00;100509.33;107432;1281;72778;-86
2022/06/20 01:57:51;;;;;;;4.20;2.20;;;;;;;13.03;100.00;100520.34;107046;1284;62133;-86
2022/06/20 02:00:21;;;;;;;6.30;2.40;;;;;;;13.01;100.00;100536.71;107296;1282;61322;-86
2022/06/20 02:02:51;;;;;;;7.80;2.80;;;;;;;13.00;100.00;100544.70;107617;1281;74428;-86
2022/06/20 02:05:23;;;;;;;5.80;3.20;;;;;;;12.99;100.00;100537.15;107326;1280;71299;-86
2022/06/20 02:07:51;;;;;;;4.60;2.60;;;;;;;12.99;100.00;100534.70;107593;1281;74362;-86
2022/06/20 02:10:25;;;;;;;4.20;2.60;;;;;;;12.98;100.00;100540.09;107546;1281;62214;-85
2022/06/20 02:12:53;;;;;;;3.60;1.80;;;;;;;12.98;100.00;100500.84;107589;1281;60782;-85
2022/06/20 02:15:21;;;;;;;4.90;2.50;;;;;;;12.97;100.00;100441.08;107631;1281;75376;-85
2022/06/20 02:17:50;;;;;;;4.70;2.10;;;;;;;12.94;100.00;100443.38;107567;1281;72436;-85
2022/06/20 02:20:25;;;;;;;4.30;2.10;;;;;;;12.93;100.00;100477.13;107355;1281;74043;-85
2022/06/20 02:22:53;;;;;;;7.50;3.00;;;;;;;12.93;100.00;100521.70;107246;1281;63635;-85
2022/06/20 02:25:24;;;;;;;4.80;2.30;;;;;;;12.91;100.00;100535.38;107570;1281;60703;-86
2022/06/20 02:27:55;;;;;;;5.80;2.80;;;;;;;12.90;100.00;100537.05;107357;1281;75172;-86
2022/06/20 02:30:23;;;;;;;6.30;3.20;;;;;;;12.89;100.00;100529.83;107300;1282;71623;-86
2022/06/20 02:32:57;;;;;;;6.30;2.90;;;;;;;12.88;100.00;100515.23;107616;1281;74186;-86
2022/06/20 02:35:25;;;;;;;3.90;2.10;;;;;;;12.85;100.00;100490.82;107534;1281;62542;-85
2022/06/20 02:37:53;;;;;;;4.30;2.20;;;;;;;12.82;100.00;100471.51;107623;1281;60582;-85
2022/06/20 02:40:24;;;;;;;8.40;3.00;;;;;;;12.79;100.00;100453.43;107575;1281;74976;-85
2022/06/20 02:43:06;;;;;;;2.80;1.60;;;;;;;12.75;100.00;100464.05;107480;1281;70763;-85
2022/06/20 02:45:34;;;;;;;7.30;2.80;;;;;;;12.72;100.00;100488.39;107547;1281;73405;-85
2022/06/20 02:48:04;;;;;;;3.10;1.80;;;;;;;12.70;100.00;100501.08;107209;1281;62102;-86
2022/06/20 02:50:46;;;;;;;6.20;2.00;;;;;;;12.69;100.00;100499.02;107412;1281;60491;-85
2022/06/20 02:53:15;;;;;;;4.10;2.00;;;;;;;12.65;100.00;100504.73;107355;1281;76278;-86
2022/06/20 02:55:42;;;;;;;4.00;2.10;;;;;;;12.63;100.00;100514.24;107372;1282;71600;-86
2022/06/20 02:58:19;;;;;;;4.40;2.30;;;;;;;12.63;100.00;100501.22;106837;1282;73012;-86
2022/06/20 03:01:14;;;;;;;4.30;2.10;;;;;;;12.65;100.00;100505.09;107253;1281;61284;-86
2022/06/20 03:03:46;;;;;;;3.80;2.60;;;;;;;12.66;100.00;100507.10;107197;1282;61387;-86
2022/06/20 03:06:24;;;;;;;4.70;1.80;;;;;;;12.65;100.00;100544.98;107573;1282;75697;-87
2022/06/20 03:08:53;;;;;;;3.60;2.40;;;;;;;12.62;100.00;100548.34;107456;1281;72515;-86
2022/06/20 03:11:21;;;;;;;4.40;2.50;;;;;;;12.58;100.00;100573.77;107416;1281;72991;-85
2022/06/20 03:13:49;;;;;;;4.00;2.00;;;;;;;12.54;100.00;100555.46;107086;1282;64783;-86
2022/06/20 03:16:17;;;;;;;4.80;2.30;;;;;;;12.49;100.00;100540.94;107646;1281;60540;-85
2022/06/20 03:18:49;;;;;;;6.90;2.90;;;;;;;12.49;100.00;100539.42;107547;1281;75117;-85
2022/06/20 03:21:22;;;;;;;5.00;2.40;;;;;;;12.48;100.00;100541.05;107654;1281;72407;-85
2022/06/20 03:23:50;;;;;;;6.00;2.10;;;;;;;12.46;100.00;100572.91;107363;1281;75527;-86
2022/06/20 03:26:25;;;;;;;4.10;2.30;;;;;;;12.43;100.00;100585.57;107083;1282;62271;-84
2022/06/20 03:28:53;;;;;;;9.50;2.60;;;;;;;12.39;100.00;100597.01;107452;1282;61930;-85
2022/06/20 03:31:21;;;;;;;4.90;2.30;;;;;;;12.36;100.00;100596.81;107590;1281;75014;-85
2022/06/20 03:33:48;;;;;;;7.40;3.00;;;;;;;12.33;100.00;100624.92;107287;1283;72448;-84
2022/06/20 03:36:27;;;;;;;7.30;2.40;;;;;;;12.30;100.00;100637.58;107508;1282;73934;-84
2022/06/20 03:38:55;;;;;;;5.50;2.30;;;;;;;12.27;100.00;100627.27;107116;1282;62673;-84
2022/06/20 03:41:24;;;;;;;5.00;1.80;;;;;;;12.25;100.00;100622.88;107422;1281;60315;-85
2022/06/20 03:43:59;;;;;;;3.50;1.70;;;;;;;12.24;100.00;100619.27;107278;1281;76156;-84
2022/06/20 03:46:29;;;;;;;;;;;;;;;12.22;100.00;100627.63;107495;1281;71562;-85
2022/06/20 03:49:09;;;;;;;4.90;1.80;;;;;;;12.20;100.00;100647.93;107483;1281;72915;-87
2022/06/20 03:51:44;;;;;;;5.40;1.40;;;;;;;12.17;100.00;100657.44;107488;1281;61999;-84
2022/06/20 03:54:14;;;;;;;;;;;;;;;12.13;100.00;100661.11;107374;1284;60627;-84
2022/06/20 03:56:50;;;;;;;7.20;2.60;;;;;;;12.11;100.00;100655.89;107487;1281;76204;-84
2022/06/20 03:59:20;;;;;;;4.70;1.60;;;;;;;12.11;100.00;100661.75;107392;1281;70458;-84
2022/06/20 04:02:09;;;;;;;4.20;1.90;;;;;;;12.12;100.00;100653.36;107373;1281;74612;-84
2022/06/20 04:04:50;;;;;;;6.30;2.20;;;;;;;12.11;100.00;100665.45;107556;1281;62031;-84
2022/06/20 04:07:36;;;;;;;7.50;2.10;;;;;;;12.11;100.00;100662.45;107482;1281;61849;-84
2022/06/20 04:13:40;;;;;;;9.40;2.70;;;;;;;12.13;100.00;100652.52;107515;1281;71446;-84
2022/06/20 04:16:27;;;;;;;6.20;2.10;;;;;;;12.14;100.00;100637.81;107630;1281;73112;-84
2022/06/20 04:19:09;;;;;;;12.40;4.70;;;;;;;12.16;100.00;100619.14;107334;1282;63855;-84
2022/06/20 04:22:16;;;;;;;4.40;2.10;;;;;;;12.19;100.00;100602.30;107435;1281;62160;-83
2022/06/20 04:24:45;;;;;;;8.70;2.10;;;;;;;12.22;100.00;100596.05;107580;1281;75117;-84
2022/06/20 04:27:26;;;;;;;4.30;1.70;;;;;;;12.27;100.00;100574.08;107470;1281;72359;-84
2022/06/20 04:30:05;;;;;;;2.80;1.50;;;;;;;12.30;100.00;100556.48;107620;1281;73487;-85
2022/06/20 04:32:38;;;;;;;9.50;2.00;;;;;;;12.33;100.00;100550.09;107526;1281;61930;-86
2022/06/20 04:35:23;;;;;;;6.90;2.10;;;;;;;12.40;100.00;100532.80;107373;1283;60480;-86
2022/06/20 04:37:57;;;;;;;4.50;1.80;;;;;;;12.48;100.00;100518.08;107824;1281;75644;-86
2022/06/20 04:40:56;;;;;;;4.90;1.50;;;;;;;12.53;100.00;100505.31;107797;1281;71594;-86
2022/06/20 04:43:36;;;;;;;5.80;2.20;;;;;;;12.58;100.00;100489.39;107247;1283;73625;-86
2022/06/20 04:46:19;;;;;;;7.60;2.10;;;;;;;12.61;100.00;100465.96;107569;1281;63030;-85
2022/06/20 04:48:49;;;;;;;7.50;1.90;;;;;;;12.62;100.00;100442.27;107434;1281;63058;-85
2022/06/20 04:51:25;;;;;;;5.70;1.20;;;;;;;12.64;100.00;100429.63;107569;1281;74927;-85
2022/06/20 04:53:52;;;;;;;6.90;2.40;;;;;;;12.64;100.00;100405.27;107315;1283;72141;-85
2022/06/20 04:56:26;;;;;;;3.30;1.70;;;;;;;12.64;100.00;100388.06;107399;1281;73961;-85
2022/06/20 04:59:00;;;;;;;6.60;2.00;;;;;;;12.64;100.00;100371.94;107133;1282;63207;-85
2022/06/20 05:01:31;;;;;;;4.20;1.80;;;;;;;12.62;100.00;100358.25;107572;1281;59186;-85
2022/06/20 05:04:11;;;;;;;3.60;1.90;;;;;;;12.59;100.00;100354.17;107829;1282;74965;-85
2022/06/20 05:06:41;;;;;;;4.40;2.10;;;;;;;12.58;100.00;100353.06;107818;1282;72830;-84
2022/06/20 05:09:13;;;;;;;7.40;2.10;;;;;;;12.54;100.00;100347.12;107935;1281;74774;-85
2022/06/20 05:11:47;;;;;;;5.60;2.50;;;;;;;12.53;100.00;100347.69;107805;1281;62415;-84
2022/06/20 05:14:23;;;;;;;7.10;2.50;;;;;;;12.52;100.00;100342.44;108146;1281;60325;-84
2022/06/20 05:16:58;;;;;;;5.20;2.20;;;;;;;12.52;100.00;100330.45;107919;1281;74920;-84
2022/06/20 05:19:36;;;;;;;4.30;2.10;;;;;;;12.50;100.00;100328.07;107619;1281;71224;-84
2022/06/20 05:22:11;;;;;;;7.70;2.60;;;;;;;12.50;100.00;100341.61;107502;1281;72461;-84
2022/06/20 05:24:39;;;;;;;;;;;;;;;12.52;100.00;100353.98;107670;1282;62143;-84
2022/06/20 05:27:41;;;;;;;9.70;2.10;;;;;;;12.53;100.00;100341.98;107338;1281;59657;-84
2022/06/20 05:30:14;;;;;;;3.80;1.70;;;;;;;12.55;100.00;100351.48;107549;1283;74168;-85
2022/06/20 05:32:47;;;;;;;5.70;2.10;;;;;;;12.53;100.00;100352.31;107497;1281;71874;-85
2022/06/20 05:35:36;;;;;;;9.20;2.10;;;;;;;12.49;100.00;100372.79;107549;1282;74362;-84
2022/06/20 05:38:26;;;;;;;6.00;1.80;;;;;;;12.45;100.00;100387.33;107059;1281;62890;-84
2022/06/20 05:40:58;;;;;;;13.30;7.30;;;;;;;12.47;100.00;100405.48;107305;1281;59255;-85
2022/06/20 05:43:29;;;;;;;5.20;1.50;;;;;;;12.54;100.00;100424.92;107312;1281;74884;-85
2022/06/20 05:46:00;;;;;;;5.50;1.80;;;;;;;12.64;100.00;100443.27;107580;1282;72706;-85
2022/06/20 05:48:33;;;;;;;5.00;2.30;;;;;;;12.73;100.00;100458.70;107474;1281;71463;-85
2022/06/20 05:51:09;;;;;;;5.60;1.70;;;;;;;12.76;99.59;100470.28;107502;1281;63609;-85
2022/06/20 05:53:44;;;;;;;4.40;1.70;;;;;;;12.78;99.14;100488.32;107278;1282;61038;-84
2022/06/20 05:56:19;;;;;;;6.40;1.60;;;;;;;12.83;99.02;100491.78;107138;1282;75915;-84
2022/06/20 05:58:48;;;;;;;6.40;2.10;;;;;;;12.87;99.11;100495.03;107482;1281;71568;-85
2022/06/20 06:01:18;;;;;;;8.40;2.50;;;;;;;12.88;98.74;100501.89;107415;1281;73013;-84
2022/06/20 06:03:57;;;;;;;3.30;1.60;;;;;;;12.88;98.95;100515.33;107531;1281;61307;-84
2022/06/20 06:06:36;;;;;;;8.50;3.30;;;;;;;12.86;97.65;100528.36;107310;1281;61676;-85
2022/06/20 06:09:12;;;;;;;4.40;1.30;;;;;;;12.82;97.40;100538.29;107225;1281;74543;-84
2022/06/20 06:11:56;;;;;;;10.50;2.10;;;;;;;12.81;97.75;100532.33;107486;1281;71293;-84
2022/06/20 06:14:37;;;;;;;7.60;2.10;;;;;;;12.84;97.89;100542.98;107218;1282;71963;-85
2022/06/20 06:17:42;;;;;;;8.50;1.60;;;;;;;12.86;97.88;100553.02;107467;1281;62618;-85
2022/06/20 06:20:19;;;;;;;6.80;1.80;;;;;;;12.86;97.67;100548.73;106655;1287;61184;-86
2022/06/20 06:22:50;;;;;;;4.10;1.30;;;;;;;12.88;98.43;100550.42;106964;1282;75441;-86
2022/06/20 06:25:27;;;;;;;6.80;1.80;;;;;;;12.87;97.36;100559.14;106908;1281;71393;-84
2022/06/20 06:27:59;;;;;;;10.30;3.90;;;;;;;12.78;96.47;100576.39;107340;1281;73135;-84
2022/06/20 06:30:32;;;;;;;4.70;1.60;;;;;;;12.71;96.97;100586.33;107337;1281;62898;-84
2022/06/20 06:33:05;;;;;;;7.00;2.20;;;;;;;12.65;96.77;100598.23;106979;1282;60004;-84
2022/06/20 06:35:37;;;;;;;5.50;1.70;;;;;;;12.64;97.70;100609.48;107425;1281;75670;-85
2022/06/20 06:38:17;;;;;;;9.50;2.10;;;;;;;12.63;97.10;100615.48;106970;1282;71461;-84
2022/06/20 06:40:50;;;;;;;12.30;3.10;;;;;;;12.63;97.79;100628.40;107237;1281;75166;-85
2022/06/20 06:43:37;;;;;;;9.60;1.80;;;;;;;12.67;98.48;100643.41;107004;1281;62339;-86
2022/06/20 06:46:19;;;;;;;4.90;1.70;;;;;;;12.58;96.83;100648.89;107471;1281;60576;-85
2022/06/20 06:48:53;;;;;;;4.70;1.60;;;;;;;12.53;96.97;100647.78;107255;1281;74817;-85
2022/06/20 06:51:29;;;;;;;7.40;1.90;;;;;;;12.50;98.25;100650.11;107258;1281;72706;-85
2022/06/20 06:54:10;;;;;;;10.90;1.80;;;;;;;12.51;98.68;100639.23;107164;1282;74300;-85
2022/06/20 06:56:57;;;;;;;24.90;9.80;;;;;;;12.53;98.57;100630.95;107135;1281;61992;-85
2022/06/20 06:59:32;;;;;;;6.20;1.80;;;;;;;12.60;99.18;100632.50;107254;1281;61082;-86
2022/06/20 07:02:00;;;;;;;;;;;;;;;12.62;98.18;100629.40;107470;1282;75055;-85
2022/06/20 07:04:47;;;;;;;8.00;2.10;;;;;;;12.63;98.33;100617.39;107119;1282;72972;-86
2022/06/20 07:07:27;;;;;;;6.90;1.90;;;;;;;12.73;98.37;100610.79;107355;1281;73013;-86
2022/06/20 07:09:56;;;;;;;3.80;1.40;;;;;;;12.87;97.88;100602.61;107409;1281;61626;-86
2022/06/20 07:12:51;;;;;;;8.20;2.70;;;;;;;13.00;96.92;100596.55;107048;1283;60659;-85
2022/06/20 07:15:20;;;;;;;6.10;2.00;;;;;;;13.15;95.87;100597.65;107128;1281;74958;-85
2022/06/20 07:17:55;;;;;;;4.40;1.30;;;;;;;13.27;96.09;100591.30;107146;1284;70197;-85
2022/06/20 07:20:26;;;;;;;6.50;1.60;;;;;;;13.37;94.78;100587.09;107430;1281;72920;-85
2022/06/20 07:22:54;;;;;;;6.70;2.60;;;;;;;13.45;94.22;100580.73;107909;1281;64821;-86
2022/06/20 07:25:24;;;;;;;5.30;1.50;;;;;;;13.53;94.13;100572.08;107781;1282;60595;-85
2022/06/20 07:28:02;;;;;;;3.50;1.30;;;;;;;13.58;93.61;100569.73;107516;1281;75526;-86
2022/06/20 07:30:37;;;;;;;6.40;2.10;;;;;;;13.61;93.37;100566.05;107390;1281;72494;-86
2022/06/20 07:33:24;;;;;;;6.10;3.00;;;;;;;13.69;93.64;100563.30;107256;1281;73997;-85
2022/06/20 07:35:56;;;;;;;7.30;1.70;;;;;;;13.85;94.85;100555.90;107064;1281;62195;-84
2022/06/20 07:38:34;;;;;;;5.70;2.10;;;;;;;13.96;91.78;100553.85;107065;1282;60289;-85
2022/06/20 07:41:32;;;;;;;6.00;1.70;;;;;;;14.04;90.46;100550.21;106942;1282;76110;-85
2022/06/20 07:44:06;;;;;;;6.90;1.90;;;;;;;14.01;88.26;100550.08;107398;1281;72483;-85
2022/06/20 07:46:46;;;;;;;5.90;2.00;;;;;;;14.04;88.90;100539.05;107294;1281;73140;-84
2022/06/20 07:49:25;;;;;;;14.40;6.90;;;;;;;14.04;87.43;100545.04;107186;1281;62277;-84
2022/06/20 07:51:56;;;;;;;8.90;2.30;;;;;;;14.11;87.85;100550.73;107390;1281;60499;-84
2022/06/20 07:54:32;;;;;;;10.40;2.40;;;;;;;14.14;87.07;100551.27;107135;1282;75141;-84
2022/06/20 07:57:22;;;;;;;4.40;1.90;;;;;;;14.24;87.67;100545.91;107079;1281;71441;-83
2022/06/20 08:00:07;;;;;;;6.50;1.90;;;;;;;14.42;87.88;100544.30;106927;1281;73096;-83
2022/06/20 08:02:43;;;;;;;11.90;2.20;;;;;;;14.51;86.37;100551.69;107394;1280;62067;-84
2022/06/20 08:05:20;;;;;;;12.20;2.70;;;;;;;14.56;85.49;100551.92;106853;1284;60425;-84
2022/06/20 08:08:19;;;;;;;5.30;2.10;;;;;;;14.63;86.09;100550.95;106928;1282;76262;-87
2022/06/20 08:10:54;;;;;;;11.10;2.40;;;;;;;14.73;84.75;100563.72;107484;1281;71506;-84
2022/06/20 08:13:42;;;;;;;6.80;2.30;;;;;;;14.72;82.26;100570.83;106912;1281;73067;-84
2022/06/20 08:16:24;;;;;;;7.10;2.10;;;;;;;14.74;83.07;100573.66;107102;1281;61716;-84
2022/06/20 08:18:52;;;;;;;6.90;3.40;;;;;;;14.72;83.54;100568.81;107091;1281;61183;-84
2022/06/20 08:21:41;;;;;;;10.40;3.30;;;;;;;14.75;84.14;100576.05;107139;1282;76232;-84
2022/06/20 08:24:18;;;;;;;4.10;1.20;;;;;;;14.70;81.67;100575.39;107308;1281;71431;-85
2022/06/20 08:26:56;;;;;;;9.00;2.10;;;;;;;14.63;80.92;100571.78;107245;1281;73027;-85
2022/06/20 08:29:37;;;;;;;8.50;2.20;;;;;;;14.64;82.55;100572.83;107298;1281;62401;-85
2022/06/20 08:32:12;;;;;;;9.70;2.90;;;;;;;14.70;83.07;100577.98;107097;1281;60791;-85
2022/06/20 08:34:47;;;;;;;6.50;2.10;;;;;;;14.73;81.20;100575.96;107432;1281;74703;-85
2022/06/20 08:37:14;;;;;;;9.10;2.10;;;;;;;14.79;80.74;100580.69;107199;1281;72436;-85
2022/06/20 08:39:58;;;;;;;7.60;1.60;;;;;;;14.89;81.35;100583.73;107215;1281;74722;-85
2022/06/20 08:43:04;;;;;;;7.30;2.10;;;;;;;14.96;80.78;100593.43;107070;1281;62296;-85
2022/06/20 08:45:57;;;;;;;10.10;3.40;;;;;;;14.95;80.47;100586.02;107850;1281;62029;-85
2022/06/20 08:48:33;;;;;;;10.60;3.30;;;;;;;14.97;80.66;100595.77;107149;1281;638124;-85
2022/06/20 08:51:31;;;;;;;11.30;3.40;;;;;;;14.97;80.77;100596.27;106922;1281;71340;-85
2022/06/20 08:54:34;;;;;;;8.30;3.90;;;;;;;14.99;81.17;100597.73;107181;1280;72966;-84
2022/06/20 08:57:12;;;;;;;11.10;3.00;;;;;;;15.07;80.82;100600.11;107290;1281;63467;-85
2022/06/20 09:00:10;;;;;;;8.70;2.80;;;;;;;15.18;80.39;100600.35;107218;1281;61202;-85
2022/06/20 09:03:14;;;;;;;8.00;2.50;;;;;;;15.32;79.65;100607.61;107280;1281;75252;-85
2022/06/20 09:06:26;;;;;;;7.00;2.40;;;;;;;15.46;79.21;100614.03;107596;1281;72432;-86
2022/06/20 09:09:22;;;;;;;6.00;2.40;;;;;;;15.55;77.26;100611.80;107284;1281;72792;-86
2022/06/20 09:12:31;;;;;;;9.10;3.00;;;;;;;15.63;75.98;100610.75;107192;1281;62840;-85
2022/06/20 09:15:19;;;;;;;8.80;2.80;;;;;;;15.78;76.08;100605.91;107538;1281;61760;-87
2022/06/20 09:18:12;;;;;;;5.90;2.10;;;;;;;15.93;75.23;100594.48;107186;1281;76567;-85
2022/06/20 09:20:56;;;;;;;8.30;2.60;;;;;;;16.12;75.04;100588.02;107022;1281;69383;-86
2022/06/20 09:23:38;;;;;;;7.50;2.10;;;;;;;16.30;74.08;100586.90;107458;1281;72919;-87
2022/06/20 09:26:34;;;;;;;9.20;4.20;;;;;;;16.42;72.12;100581.00;107390;1281;61394;-85
2022/06/20 09:29:17;;;;;;;4.30;1.80;;;;;;;16.59;71.64;100578.95;106761;1281;61924;-86
2022/06/20 09:32:14;;;;;;;5.40;1.30;;;;;;;16.75;69.99;100589.95;107221;1281;75021;-86
2022/06/20 09:34:59;;;;;;;5.50;1.60;;;;;;;16.83;67.71;100590.17;107348;1281;71356;-86
2022/06/20 09:37:43;;;;;;;4.50;1.20;;;;;;;16.89;68.12;100589.38;107110;1281;72049;-86
2022/06/20 09:40:47;;;;;;;5.90;1.40;;;;;;;17.01;67.87;100588.20;107573;1281;62331;-86
2022/06/20 09:43:57;;;;;;;3.20;1.60;;;;;;;17.19;66.95;100588.04;107409;1281;60346;-87
2022/06/20 09:46:30;;;;;;;5.00;1.80;;;;;;;17.39;66.23;100582.55;107287;1282;75894;-87
2022/06/20 09:49:12;;;;;;;4.30;1.40;;;;;;;17.50;65.58;100582.64;106951;1281;72483;-87
2022/06/20 09:51:42;;;;;;;4.80;2.20;;;;;;;17.46;64.98;100588.53;107439;1281;72981;-87
2022/06/20 09:54:25;;;;;;;7.20;1.20;;;;;;;17.34;65.33;100593.00;107159;1281;63415;-87
2022/06/20 09:57:21;;;;;;;3.30;1.50;;;;;;;17.26;66.07;100586.77;107439;1281;62162;-87
2022/06/20 10:00:14;;;;;;;5.70;1.00;;;;;;;17.22;66.05;100588.14;107191;1281;74632;-88
2022/06/20 10:02:56;;;;;;;6.10;1.50;;;;;;;17.10;65.94;100590.68;107422;1281;71944;-88
2022/06/20 10:05:42;;;;;;;4.50;1.00;;;;;;;17.05;66.65;100587.67;107393;1281;72791;-88
2022/06/20 10:08:47;;;;;;;7.90;1.80;;;;;;;17.05;66.83;100583.27;107089;1281;63749;-88
2022/06/20 10:11:25;;;;;;;5.90;1.30;;;;;;;17.19;67.47;100577.27;107403;1280;61344;-88
2022/06/20 10:14:01;;;;;;;4.30;1.40;;;;;;;17.48;66.53;100578.20;107247;1279;75428;-88
2022/06/20 10:16:44;;;;;;;5.30;2.10;;;;;;;17.88;65.31;100586.86;107524;1281;73188;-88
2022/06/20 10:19:19;;;;;;;5.70;1.40;;;;;;;18.30;62.98;100590.95;107133;1281;73080;-89
2022/06/20 10:22:05;;;;;;;3.00;0.80;;;;;;;18.62;61.72;100582.38;107161;1281;61177;-88
2022/06/20 10:24:54;;;;;;;5.00;1.30;;;;;;;18.87;60.40;100580.80;107377;1280;61261;-88
2022/06/20 10:27:52;;;;;;;3.60;1.10;;;;;;;18.92;59.99;100584.69;107404;1280;76387;-88
2022/06/20 10:30:37;;;;;;;4.40;1.20;;;;;;;18.85;60.27;100584.39;107083;1282;72501;-88
2022/06/20 10:33:50;;;;;;;2.40;0.90;;;;;;;18.76;60.16;100585.84;107564;1279;74324;-88
2022/06/20 10:36:35;;;;;;;3.90;0.90;;;;;;;18.47;58.32;100585.33;106560;1287;61168;-88
2022/06/20 10:39:08;;;;;;;3.10;0.90;;;;;;;18.45;58.75;100582.38;107371;1281;61519;-88
2022/06/20 10:41:41;;;;;;;3.00;1.00;;;;;;;18.62;58.45;100578.94;107631;1281;74933;-88
2022/06/20 10:44:25;;;;;;;6.20;1.30;;;;;;;18.84;57.80;100576.55;107207;1281;71378;-88
2022/06/20 10:47:05;;;;;;;4.00;1.10;;;;;;;19.10;56.84;100589.50;107356;1281;73157;-88
2022/06/20 10:49:47;;;;;;;4.90;1.20;;;;;;;19.07;54.21;100594.82;107349;1281;61352;-88
2022/06/20 10:52:43;;;;;;;4.90;1.20;;;;;;;19.03;54.35;100597.57;107599;1281;61034;-89
2022/06/20 10:55:38;;;;;;;4.90;1.10;;;;;;;19.16;55.18;100603.09;107816;1282;75015;-88
2022/06/20 10:58:12;;;;;;;1.70;0.80;;;;;;;19.22;54.71;100610.63;107660;1282;71844;-89
2022/06/20 11:04:11;;;;;;;2.50;0.90;;;;;;;18.81;53.72;100606.61;107591;1278;61410;-88
2022/06/20 11:09:38;;;;;;;3.00;1.30;;;;;;;18.54;54.93;100606.98;107920;1277;75085;-87
2022/06/20 11:12:22;;;;;;;3.20;1.30;;;;;;;18.53;52.61;100615.93;107831;1278;72435;-89
2022/06/20 11:15:13;;;;;;;2.10;0.90;;;;;;;18.65;52.56;100611.88;107694;1277;72344;-89
2022/06/20 11:18:11;;;;;;;5.10;1.00;;;;;;;18.81;52.38;100606.77;107661;1279;61715;-87
2022/06/20 11:20:50;;;;;;;2.40;0.60;;;;;;;18.99;48.49;100610.08;107492;1279;60916;-87
2022/06/20 11:23:40;;;;;;;4.40;1.10;;;;;;;19.03;47.14;100609.02;107536;1279;75107;-85
2022/06/20 11:26:34;;;;;;;1.80;0.60;;;;;;;19.22;46.89;100604.39;107890;1277;71373;-84
2022/06/20 11:29:36;;;;;;;3.30;0.90;;;;;;;19.37;46.28;100599.52;107597;1277;74617;-85
2022/06/20 11:32:19;;;;;;;3.20;0.90;;;;;;;19.61;46.37;100589.55;107349;1281;60724;-86
2022/06/20 11:34:52;;;;;;;3.40;1.10;;;;;;;19.99;45.67;100595.97;107601;1279;60573;-86
2022/06/20 11:37:29;;;;;;;5.20;1.00;;;;;;;20.18;44.11;100588.84;107665;1277;76133;-85
2022/06/20 11:39:56;;;;;;;2.80;1.00;;;;;;;20.26;43.53;100591.85;107937;1277;71274;-85
2022/06/20 11:42:41;;;;;;;3.10;0.80;;;;;;;20.25;43.82;100587.90;107939;1278;74035;-85
2022/06/20 11:45:34;;;;;;;;;;;;;;;20.15;43.84;100587.13;107705;1277;61506;-85
2022/06/20 11:48:39;;;;;;;4.30;0.90;;;;;;;20.09;42.72;100595.09;107558;1279;61416;-84
2022/06/20 11:51:25;;;;;;;4.50;1.00;;;;;;;20.08;42.19;100589.73;107516;1277;73579;-92
2022/06/20 11:54:20;;;;;;;5.20;0.80;;;;;;;20.11;41.57;100594.10;107509;1279;71431;-86
2022/06/20 11:56:54;;;;;;;2.30;0.90;;;;;;;20.04;40.84;100584.05;107740;1279;73851;-84
2022/06/20 11:59:40;;;;;;;2.60;0.70;;;;;;;20.21;42.54;100573.97;107944;1279;59607;-87
2022/06/20 12:02:27;;;;;;;2.20;0.80;;;;;;;20.44;42.88;100571.13;107906;1279;59178;-86
2022/06/20 12:05:01;;;;;;;2.20;0.60;;;;;;;20.53;42.51;100574.97;108052;1279;75668;-87
2022/06/20 12:08:08;;;;;;;2.20;1.10;;;;;;;20.58;41.70;100574.75;108268;1279;71576;-86
2022/06/20 12:10:55;;;;;;;2.50;0.70;;;;;;;20.91;40.73;100582.33;108280;1279;72934;-87
2022/06/20 12:14:04;;;;;;;2.50;0.70;;;;;;;21.38;39.54;100576.87;107981;1279;61256;-86
2022/06/20 12:16:49;;;;;;;3.10;0.70;;;;;;;21.34;38.21;100584.96;107748;1279;60675;-86